Southern Illinois Airport
KMDH : now visible

Airfield :











YOU CAN JOIN US ON...

 
LOGIN :

Register | Disclaimer

   EN    FR    IT 

 









Legend :    VFR   Marginal VFR   IFR   Intensive IFR   Very Intensive IFR
Visi :
Ceiling :
>= 8 km
>= 3000ft
5 to 8 km
1000 to 3000 ft
1500m to 5 km
500 to 1000 ft
800 to 1500m
200 to 500 ft
< 800m
< 200 ft
Symbols :   Thunderstorms  Fog  Heavy snow  Heavy precipitations  Wind > 20 kt






- Airport Elevation : 411 ft
- IATA code : MDH


KMDH - Southern Illinois

CURRENT METAR :
  • 082118Z 20009KT 10SM BKN013 08/06 A2997 RMK AO2 T00830061

EXPIRED METARs :
  • 082052Z 18010KT 10SM CLR 09/06 A2997 RMK AO2 SLP150 T00890056 56019
  • 081952Z 21013G20KT 10SM FEW026 12/07 A2998 RMK AO2 SLP154 T01220067
  • 081852Z 20010KT 10SM FEW030 12/07 A3001 RMK AO2 SLP163 T01220067
  • 081835Z 19011KT 10SM BKN030 12/07 A3001 RMK AO2 T01170067

TAF N/A



MET'MAP, your aeronautical weather chart ! - Copyright ORBIFLY December 2007 - Disclaimer

ORBIFLY MET'MAP TEAM :

Programming & Development : Alexandra Zaïnal
Concept & original design : Baudouin d'Aumeries
Assistance for programming : Marc-Olivier Méhu
Technical & hardware support : Manuel Goepfert

Contact : metmap@orbifly.com




SOURCES & CREDITS :

   NOAA       Earth
Advisory